Cloridorme, Canada
Current Conditions -  °F | °C
As of 11:00 AM on Friday 24 Oct 2014 (Local Time) from CYGP Reporting Station
Overcast Overcast  
Wind Chill: 41°   Ceiling: 8000
Heat Index: 45°   Visibility: 15mi
Dew Point: 30°   Wind: 6mph
Humidity: 57%   Direction: 270°W
Pressure: 29.88"   Gusts: NA
Location:  49.17°N, 64.92°W
Report Text: CYGP 241500Z 27005KT 15SM BKN080 OVC120 07/M01 A2988 RMK AC6AC2 SLP119
Loading
Personal Weather Stations






























Interactive Weather Map
Tropical Storm Tracking
New forecast layout! Learn more

10-Day Weather Forecast

Advertisements
Track Severe Weather on mobile